Time;durP1;ratioP1;P1;durP2;ratioP2;P2;SDS_P1;SDS_P2;PMS_P1;PMS_P2;Temp;Humidity;BMP_temperature;BMP_pressure;BME280_temperature;BME280_humidity;BME280_pressure;Samples;Min_cycle;Max_cycle;Signal;HPM_P1;HPM_P2
2021/12/06 00:00:26;;;;;;;89.15;25.95;;;;;;;-0.07;100.00;101401.94;5031936;28;20159;-73
2021/12/06 00:02:56;;;;;;;85.68;26.45;;;;;;;0.04;100.00;101405.00;5032420;28;20026;-73
2021/12/06 00:05:25;;;;;;;97.22;28.00;;;;;;;0.11;100.00;101406.47;5032055;28;20029;-74
2021/12/06 00:07:50;;;;;;;94.75;27.35;;;;;;;0.20;100.00;101414.91;5032227;28;20116;-74
2021/12/06 00:10:16;;;;;;;92.80;27.73;;;;;;;0.25;100.00;101405.94;5031523;28;20452;-74
2021/12/06 00:12:43;;;;;;;101.60;29.40;;;;;;;0.30;100.00;101406.63;5032246;28;20034;-74
2021/12/06 00:15:09;;;;;;;112.32;31.77;;;;;;;0.35;100.00;101412.53;5031808;28;20120;-74
2021/12/06 00:17:35;;;;;;;104.13;30.05;;;;;;;0.42;100.00;101407.06;5032163;28;20482;-74
2021/12/06 00:20:01;;;;;;;105.75;29.63;;;;;;;0.50;100.00;101402.38;5031914;28;20075;-77
2021/12/06 00:22:26;;;;;;;111.05;31.60;;;;;;;0.53;100.00;101403.09;5031795;28;20025;-74
2021/12/06 00:24:55;;;;;;;111.03;30.30;;;;;;;0.57;100.00;101419.56;5032023;28;20417;-73
2021/12/06 00:27:22;;;;;;;111.40;30.25;;;;;;;0.61;100.00;101415.03;5031478;28;20087;-74
2021/12/06 00:29:48;;;;;;;127.75;32.50;;;;;;;0.65;100.00;101422.72;5032069;28;20138;-73
2021/12/06 00:32:14;;;;;;;106.95;29.80;;;;;;;0.70;100.00;101414.66;5031564;28;20061;-73
2021/12/06 00:34:40;;;;;;;118.15;32.08;;;;;;;0.77;100.00;101423.16;5031856;28;20068;-72
2021/12/06 00:37:20;;;;;;;132.90;33.60;;;;;;;0.83;100.00;101426.38;5031272;28;20056;-74
2021/12/06 00:40:09;;;;;;;124.82;32.45;;;;;;;0.85;100.00;101432.41;5032015;28;20029;-73
2021/12/06 00:42:35;;;;;;;140.13;34.33;;;;;;;0.88;100.00;101429.66;5031982;28;20109;-73
2021/12/06 00:45:06;;;;;;;143.90;36.15;;;;;;;0.95;100.00;101439.91;5034549;28;20034;-73
2021/12/06 00:47:31;;;;;;;126.13;33.15;;;;;;;0.99;100.00;101449.34;5035892;28;20527;-73
2021/12/06 00:49:56;;;;;;;143.25;34.47;;;;;;;1.01;100.00;101450.13;5034534;28;20030;-74
2021/12/06 00:52:22;;;;;;;144.85;36.22;;;;;;;1.04;100.00;101450.00;5035502;28;20446;-73
2021/12/06 00:54:49;;;;;;;136.70;34.67;;;;;;;1.07;100.00;101457.72;5035717;28;20052;-73
2021/12/06 00:57:15;;;;;;;130.55;34.80;;;;;;;1.10;100.00;101460.22;5035211;28;20187;-73
2021/12/06 00:59:41;;;;;;;142.10;35.55;;;;;;;1.12;100.00;101455.78;5035763;28;20037;-73
2021/12/06 01:02:09;;;;;;;131.93;34.28;;;;;;;1.14;100.00;101453.94;5035561;28;20036;-77
2021/12/06 01:04:37;;;;;;;147.82;36.22;;;;;;;1.19;100.00;101472.94;5035543;28;20433;-73
2021/12/06 01:07:05;;;;;;;133.20;33.45;;;;;;;1.19;100.00;101478.19;5035827;28;20056;-73
2021/12/06 01:09:30;;;;;;;152.40;36.28;;;;;;;1.19;100.00;101477.34;5034936;28;20053;-73
2021/12/06 01:11:56;;;;;;;146.32;36.20;;;;;;;1.21;100.00;101486.03;5035657;28;20437;-73
2021/12/06 01:14:22;;;;;;;151.43;34.75;;;;;;;1.20;100.00;101482.53;5033694;28;20022;-74
2021/12/06 01:16:47;;;;;;;147.13;35.83;;;;;;;1.21;100.00;101484.25;5035425;28;20045;-74
2021/12/06 01:19:13;;;;;;;144.02;34.35;;;;;;;1.21;100.00;101481.63;5034815;28;20440;-74
2021/12/06 01:21:55;;;;;;;146.57;36.15;;;;;;;1.21;100.00;101489.50;5035495;28;20038;-73
2021/12/06 01:24:27;;;;;;;;;;;;;;;1.22;100.00;101493.81;5035315;28;20109;-73
2021/12/06 01:30:00;;;;;;;153.13;37.28;;;;;;;1.21;100.00;101493.88;5034329;28;20052;-73
2021/12/06 01:40:04;;;;;;;144.20;35.08;;;;;;;1.19;100.00;101500.94;5035432;28;20121;-73
2021/12/06 01:42:30;;;;;;;155.88;36.33;;;;;;;1.21;100.00;101509.63;5034574;28;20049;-73
2021/12/06 01:44:57;;;;;;;149.70;37.00;;;;;;;1.21;100.00;101501.75;5035314;28;20044;-74
2021/12/06 01:47:27;;;;;;;153.52;37.50;;;;;;;1.21;100.00;101509.63;5034903;28;20045;-72
2021/12/06 01:49:55;;;;;;;162.93;38.92;;;;;;;1.22;100.00;101503.44;5035310;28;20185;-74
2021/12/06 01:52:33;;;;;;;157.20;37.45;;;;;;;1.21;100.00;101507.00;5033336;28;20095;-74
2021/12/06 01:54:59;;;;;;;153.15;37.10;;;;;;;1.22;100.00;101503.44;5033933;28;20025;-74
2021/12/06 01:57:27;;;;;;;154.43;37.92;;;;;;;1.21;100.00;101497.34;5033799;28;20040;-73
2021/12/06 01:59:53;;;;;;;154.73;36.58;;;;;;;1.21;100.00;101502.59;5034823;28;20060;-73
2021/12/06 02:02:21;;;;;;;157.50;38.20;;;;;;;1.23;100.00;101497.28;5034083;28;20559;-74
2021/12/06 02:04:46;;;;;;;170.50;39.25;;;;;;;1.22;100.00;101491.22;5034682;28;20030;-73
2021/12/06 02:07:16;;;;;;;164.90;39.22;;;;;;;1.23;100.00;101489.44;5034529;28;20034;-73
2021/12/06 02:09:46;;;;;;;158.63;39.15;;;;;;;1.23;100.00;101492.88;5034555;28;20030;-73
2021/12/06 02:12:12;;;;;;;167.20;39.33;;;;;;;1.23;100.00;101494.66;5034573;28;20389;-73
2021/12/06 02:17:15;;;;;;;159.93;38.33;;;;;;;1.21;100.00;101484.25;5034481;28;20037;-74
2021/12/06 02:19:47;;;;;;;171.20;39.15;;;;;;;1.21;100.00;101484.25;5033861;28;20034;-73
2021/12/06 02:22:17;;;;;;;165.85;38.03;;;;;;;1.21;100.00;101479.00;5034479;28;20034;-73
2021/12/06 02:24:42;;;;;;;158.85;37.70;;;;;;;1.23;100.00;101484.19;5034248;28;20029;-74
2021/12/06 02:27:11;;;;;;;168.30;37.88;;;;;;;1.22;100.00;101478.09;5034368;28;20397;-73
2021/12/06 02:29:37;;;;;;;171.80;38.72;;;;;;;1.23;100.00;101484.19;5033579;28;20126;-73
2021/12/06 02:32:09;;;;;;;182.77;38.75;;;;;;;1.22;100.00;101483.34;5034205;28;20044;-74
2021/12/06 02:34:35;;;;;;;180.75;38.42;;;;;;;1.22;100.00;101487.72;5033521;28;20045;-72
2021/12/06 02:37:01;;;;;;;174.68;39.05;;;;;;;1.21;100.00;101486.03;5034461;28;20025;-72
2021/12/06 02:39:29;;;;;;;169.30;38.75;;;;;;;1.20;100.00;101482.53;5033619;28;20025;-73
2021/12/06 02:41:56;;;;;;;166.82;39.60;;;;;;;1.21;100.00;101484.25;5033785;28;20477;-73
2021/12/06 02:44:21;;;;;;;172.20;38.15;;;;;;;1.19;100.00;101483.44;5031863;28;20037;-73
2021/12/06 02:46:48;;;;;;;186.00;40.75;;;;;;;1.20;100.00;101486.94;5033826;28;20083;-73
2021/12/06 02:49:13;;;;;;;171.82;38.30;;;;;;;1.18;100.00;101484.38;5033959;28;20022;-72
2021/12/06 02:51:39;;;;;;;169.35;39.35;;;;;;;1.16;100.00;101485.34;5033274;28;20641;-73
2021/12/06 02:54:05;;;;;;;168.55;39.55;;;;;;;1.14;100.00;101484.56;5033927;28;20037;-73
2021/12/06 02:56:39;;;;;;;173.90;38.65;;;;;;;1.11;100.00;101488.16;5033137;28;20037;-73
2021/12/06 02:59:09;;;;;;;167.07;38.03;;;;;;;1.07;100.00;101476.09;5033794;28;20048;-73
2021/12/06 03:01:39;;;;;;;153.93;35.90;;;;;;;1.02;100.00;101484.13;5032969;28;20030;-73
2021/12/06 03:04:05;;;;;;;156.57;35.50;;;;;;;0.96;100.00;101483.53;5033824;28;20029;-73
2021/12/06 03:06:31;;;;;;;160.20;36.88;;;;;;;0.89;100.00;101480.28;5033119;28;20034;-73
2021/12/06 03:09:08;;;;;;;166.15;37.80;;;;;;;0.83;100.00;101488.41;5033675;28;20033;-73
2021/12/06 03:11:41;;;;;;;168.98;38.55;;;;;;;0.76;100.00;101486.94;5032785;28;20067;-72
2021/12/06 03:14:10;;;;;;;159.23;35.88;;;;;;;0.67;100.00;101488.13;5033370;28;20034;-72
2021/12/06 03:16:37;;;;;;;160.35;36.08;;;;;;;0.60;100.00;101500.63;5032973;28;20474;-73
2021/12/06 03:19:04;;;;;;;139.02;33.50;;;;;;;0.53;100.00;101502.63;5033232;28;20033;-72
2021/12/06 03:21:30;;;;;;;147.10;34.92;;;;;;;0.46;100.00;101498.53;5031463;28;20038;-73
2021/12/06 03:23:56;;;;;;;144.75;34.38;;;;;;;0.38;100.00;101499.75;5033251;28;20036;-73
2021/12/06 03:26:22;;;;;;;144.82;34.17;;;;;;;0.28;100.00;101502.69;5033187;28;20030;-72
2021/12/06 03:28:48;;;;;;;130.80;33.17;;;;;;;0.19;100.00;101497.78;5031149;28;20037;-73
2021/12/06 03:31:15;;;;;;;140.60;33.65;;;;;;;0.12;100.00;101506.75;5032970;28;20038;-73
2021/12/06 03:33:43;;;;;;;147.35;34.95;;;;;;;0.03;100.00;101504.47;5032554;28;20052;-73
2021/12/06 03:36:09;;;;;;;133.77;33.42;;;;;;;-0.08;100.00;101508.34;5033058;28;20467;-73
2021/12/06 03:38:36;;;;;;;131.43;32.60;;;;;;;-0.17;100.00;101508.66;5032272;28;20468;-73
2021/12/06 03:41:05;;;;;;;141.40;32.15;;;;;;;-0.25;100.00;101503.69;5031256;28;20107;-74
2021/12/06 03:43:30;;;;;;;139.10;33.72;;;;;;;-0.32;100.00;101499.59;5031773;28;20033;-74
2021/12/06 03:45:56;;;;;;;134.27;30.17;;;;;;;-0.39;100.00;101504.19;5032729;28;20484;-73
2021/12/06 03:48:21;;;;;;;115.97;29.45;;;;;;;-0.43;100.00;101507.81;5032730;28;20041;-73
2021/12/06 03:50:47;;;;;;;128.55;31.98;;;;;;;-0.46;100.00;101521.00;5030972;28;20049;-73
2021/12/06 03:53:12;;;;;;;156.27;34.92;;;;;;;-0.46;100.00;101530.56;5032602;28;20112;-74
2021/12/06 03:55:38;;;;;;;151.13;36.45;;;;;;;-0.47;100.00;101521.88;5032019;28;20489;-73
2021/12/06 03:58:03;;;;;;;129.98;32.50;;;;;;;-0.49;100.00;101530.66;5031241;28;20057;-74
2021/12/06 04:00:28;;;;;;;153.63;35.65;;;;;;;-0.55;100.00;101529.13;5032265;28;20033;-76
2021/12/06 04:02:54;;;;;;;131.18;32.60;;;;;;;-0.64;100.00;101524.19;5030855;28;20080;-73
2021/12/06 04:05:20;;;;;;;116.35;30.50;;;;;;;-0.74;100.00;101521.88;5032846;28;20056;-74
2021/12/06 04:07:45;;;;;;;123.43;31.50;;;;;;;-0.81;100.00;101515.13;5031800;28;20044;-73
2021/12/06 04:10:11;;;;;;;136.10;30.63;;;;;;;-0.87;100.00;101528.41;5032135;28;20462;-73
2021/12/06 04:12:38;;;;;;;120.93;29.65;;;;;;;-0.92;100.00;101522.47;5031581;28;20021;-73
2021/12/06 04:15:07;;;;;;;104.68;27.73;;;;;;;-0.96;100.00;101531.31;5032171;28;20121;-73
2021/12/06 04:17:33;;;;;;;115.13;29.08;;;;;;;-1.02;100.00;101526.28;5031546;28;20034;-76
2021/12/06 04:19:59;;;;;;;132.45;29.67;;;;;;;-1.04;100.00;101533.31;5030592;28;20033;-73
2021/12/06 04:22:24;;;;;;;145.07;33.13;;;;;;;-1.08;100.00;101541.22;5032349;28;20040;-74
2021/12/06 04:24:50;;;;;;;108.07;29.23;;;;;;;-1.13;100.00;101544.91;5031669;28;20500;-72
2021/12/06 04:27:16;;;;;;;88.90;25.70;;;;;;;-1.18;100.00;101550.28;5031907;28;20030;-72
2021/12/06 04:29:48;;;;;;;85.60;24.70;;;;;;;-1.24;100.00;101545.19;5030491;28;20030;-73
2021/12/06 04:32:14;;;;;;;91.63;25.63;;;;;;;-1.30;100.00;101541.03;5032184;28;20132;-72
2021/12/06 04:34:40;;;;;;;104.07;27.13;;;;;;;-1.33;100.00;101542.88;5031544;28;20037;-73
2021/12/06 04:37:06;;;;;;;95.53;24.85;;;;;;;-1.38;100.00;101545.63;5030539;28;20536;-73
2021/12/06 04:39:33;;;;;;;93.72;25.45;;;;;;;-1.38;100.00;101550.00;5031869;28;20477;-73
2021/12/06 04:41:59;;;;;;;102.63;27.55;;;;;;;-1.39;100.00;101535.22;5031683;28;20053;-73
2021/12/06 04:44:24;;;;;;;110.38;28.65;;;;;;;-1.39;100.00;101530.84;5031849;28;20386;-72
2021/12/06 04:46:50;;;;;;;86.65;24.17;;;;;;;-1.41;100.00;101527.44;5030066;28;20432;-73
2021/12/06 04:49:15;;;;;;;97.03;27.08;;;;;;;-1.45;100.00;101518.84;5031970;28;20033;-72
2021/12/06 04:51:44;;;;;;;109.15;28.92;;;;;;;-1.49;100.00;101513.78;5029761;28;20033;-72
2021/12/06 04:54:12;;;;;;;120.68;30.02;;;;;;;-1.53;100.00;101514.75;5031615;28;20069;-72
2021/12/06 04:56:46;;;;;;;96.95;27.20;;;;;;;-1.56;100.00;101512.25;5030994;28;20034;-75
2021/12/06 04:59:23;;;;;;;116.65;29.15;;;;;;;-1.57;100.00;101520.97;5030505;28;20025;-72
2021/12/06 05:01:51;;;;;;;137.02;33.13;;;;;;;-1.61;100.00;101513.22;5030968;28;20104;-72
2021/12/06 05:04:22;;;;;;;121.43;31.60;;;;;;;-1.64;100.00;101521.13;5030555;28;20079;-72
2021/12/06 05:06:53;;;;;;;138.63;33.05;;;;;;;-1.66;100.00;101530.75;5030924;28;20030;-73
2021/12/06 05:09:25;;;;;;;124.32;29.98;;;;;;;-1.67;100.00;101526.44;5031629;28;20025;-72
2021/12/06 05:11:50;;;;;;;126.03;30.90;;;;;;;-1.67;100.00;101526.44;5031301;28;20088;-72
2021/12/06 05:14:17;;;;;;;132.35;31.33;;;;;;;-1.68;100.00;101529.09;5031718;28;20037;-73
2021/12/06 05:16:42;;;;;;;121.53;29.63;;;;;;;-1.72;100.00;101522.25;5031068;28;20030;-72
2021/12/06 05:19:08;;;;;;;81.22;24.13;;;;;;;-1.79;100.00;101532.88;5031477;28;20032;-72
2021/12/06 05:21:35;;;;;;;80.53;23.48;;;;;;;-1.85;100.00;101529.56;5030136;28;20029;-73
2021/12/06 05:24:00;;;;;;;107.93;27.73;;;;;;;-1.90;100.00;101532.28;5031183;28;20025;-74
2021/12/06 05:26:26;;;;;;;93.97;26.90;;;;;;;-1.95;100.00;101524.59;5030276;28;20036;-73
2021/12/06 05:28:56;;;;;;;148.73;32.60;;;;;;;-1.98;100.00;101536.88;5031017;28;20029;-73
2021/12/06 05:31:23;;;;;;;89.07;24.88;;;;;;;-2.02;100.00;101541.31;5032840;28;20037;-73
2021/12/06 05:33:57;;;;;;;111.57;29.95;;;;;;;-2.01;100.00;101547.41;5034552;28;20043;-73
2021/12/06 05:36:23;;;;;;;99.60;28.38;;;;;;;-2.02;100.00;101533.47;5035383;28;20485;-73
2021/12/06 05:38:50;;;;;;;82.35;24.92;;;;;;;-2.06;100.00;101536.22;5033223;28;20041;-73
2021/12/06 05:41:16;;;;;;;81.85;25.20;;;;;;;-2.10;100.00;101537.22;5034779;28;20110;-73
2021/12/06 05:43:41;;;;;;;99.90;28.35;;;;;;;-2.14;100.00;101537.28;5033631;28;20160;-77
2021/12/06 05:46:07;;;;;;;82.10;25.15;;;;;;;-2.13;100.00;101545.97;5033577;28;20067;-73
2021/12/06 05:48:32;;;;;;;113.63;29.13;;;;;;;-2.15;100.00;101540.78;5034836;28;20041;-73
2021/12/06 05:50:58;;;;;;;87.28;25.30;;;;;;;-2.16;100.00;101539.06;5032757;28;20037;-73
2021/12/06 05:53:24;;;;;;;145.70;33.25;;;;;;;-2.14;100.00;101534.66;5034947;28;20029;-73
2021/12/06 05:55:50;;;;;;;146.30;32.67;;;;;;;-2.16;100.00;101536.47;5034350;28;20046;-74
2021/12/06 05:58:19;;;;;;;147.65;33.30;;;;;;;-2.13;100.00;101531.16;5034930;28;20037;-74
2021/12/06 06:00:45;;;;;;;160.60;34.92;;;;;;;-2.01;100.00;101539.56;5034968;28;20035;-76
2021/12/06 06:03:10;;;;;;;196.77;37.97;;;;;;;-1.87;100.00;101540.03;5033305;28;20478;-74
2021/12/06 06:05:37;;;;;;;213.23;43.20;;;;;;;-1.63;100.00;101548.09;5035293;28;20040;-73
2021/12/06 06:08:04;;;;;;;227.63;45.30;;;;;;;-1.33;100.00;101548.09;5034261;28;20041;-73
2021/12/06 06:10:33;;;;;;;233.70;46.05;;;;;;;-1.07;100.00;101558.63;5034698;28;20026;-73
2021/12/06 06:13:00;;;;;;;298.25;56.95;;;;;;;-0.80;100.00;101560.44;5033707;28;20064;-74
2021/12/06 06:15:28;;;;;;;294.20;54.90;;;;;;;-0.61;100.00;101553.72;5034409;28;20033;-74
2021/12/06 06:17:54;;;;;;;282.33;52.30;;;;;;;-0.42;100.00;101558.34;5033701;28;20025;-74
2021/12/06 06:20:24;;;;;;;303.05;54.03;;;;;;;-0.25;100.00;101547.31;5034553;28;20045;-72
2021/12/06 06:22:49;;;;;;;286.80;54.72;;;;;;;-0.13;100.00;101548.66;5033727;28;20026;-75
2021/12/06 06:25:15;;;;;;;303.02;55.08;;;;;;;-0.06;100.00;101553.63;5034532;28;20033;-73
2021/12/06 06:27:42;;;;;;;381.27;56.58;;;;;;;0.02;100.00;101555.13;5034290;28;20034;-72
2021/12/06 06:30:09;;;;;;;420.77;57.72;;;;;;;0.09;100.00;101560.09;5033507;28;20029;-72
2021/12/06 06:32:34;;;;;;;385.25;53.85;;;;;;;0.18;100.00;101553.69;5033997;28;20045;-72
2021/12/06 06:35:00;;;;;;;673.33;60.50;;;;;;;0.22;100.00;101559.66;5033420;28;20034;-72
2021/12/06 06:37:25;;;;;;;312.08;50.22;;;;;;;0.22;100.00;101563.09;5032941;28;20124;-72
2021/12/06 06:39:51;;;;;;;429.92;52.17;;;;;;;0.24;100.00;101561.31;5033396;28;20038;-75
2021/12/06 06:42:17;;;;;;;514.63;53.42;;;;;;;0.27;100.00;101568.19;5034079;28;20106;-72
2021/12/06 06:44:42;;;;;;;557.20;58.10;;;;;;;0.29;100.00;101567.22;5033839;28;20072;-73
2021/12/06 06:47:07;;;;;;;298.85;49.53;;;;;;;0.31;100.00;101575.91;5033398;28;20048;-73
2021/12/06 06:49:33;;;;;;;715.22;61.72;;;;;;;0.33;100.00;101571.44;5033765;28;20124;-73
2021/12/06 06:51:59;;;;;;;770.42;63.08;;;;;;;0.38;100.00;101575.66;5033280;28;20496;-73
2021/12/06 06:54:25;;;;;;;539.78;58.88;;;;;;;0.39;100.00;101575.63;5033763;28;20025;-72
2021/12/06 06:56:50;;;;;;;409.75;48.70;;;;;;;0.41;100.00;101570.31;5033638;28;20087;-76
2021/12/06 06:59:16;;;;;;;938.22;66.20;;;;;;;0.42;100.00;101566.78;5033112;28;20033;-73
2021/12/06 07:01:41;;;;;;;884.40;63.25;;;;;;;0.42;100.00;101567.66;5033625;28;20416;-73
2021/12/06 07:04:08;;;;;;;817.85;60.20;;;;;;;0.43;100.00;101566.72;5031630;28;20034;-73
2021/12/06 07:06:33;;;;;;;482.60;52.10;;;;;;;0.44;100.00;101550.09;5033566;28;20032;-73
2021/12/06 07:08:59;;;;;;;365.70;46.28;;;;;;;0.46;100.00;101547.44;5033336;28;20039;-74
2021/12/06 07:11:26;;;;;;;443.80;48.95;;;;;;;0.46;100.00;101550.91;5033319;28;20366;-74
2021/12/06 07:13:51;;;;;;;639.47;55.80;;;;;;;0.46;100.00;101550.91;5033209;28;20537;-73
2021/12/06 07:16:18;;;;;;;390.95;49.05;;;;;;;0.48;100.00;101545.63;5032782;28;20117;-73
2021/12/06 07:18:43;;;;;;;634.72;55.08;;;;;;;0.48;100.00;101540.38;5033424;28;20044;-73
2021/12/06 07:21:10;;;;;;;584.92;54.88;;;;;;;0.50;100.00;101546.41;5032789;28;20120;-73
2021/12/06 07:23:38;;;;;;;673.75;63.15;;;;;;;0.52;100.00;101526.25;5033338;28;20032;-73
2021/12/06 07:26:06;;;;;;;733.67;69.07;;;;;;;0.53;100.00;101528.81;5032889;28;20072;-73
2021/12/06 07:28:31;;;;;;;483.13;56.05;;;;;;;0.60;100.00;101525.94;5033032;28;20039;-73
2021/12/06 07:30:58;;;;;;;448.10;56.08;;;;;;;0.63;100.00;101531.09;5032330;28;20068;-75
2021/12/06 07:33:25;;;;;;;537.13;57.83;;;;;;;0.64;100.00;101533.66;5032776;28;20043;-72
2021/12/06 07:35:51;;;;;;;438.70;55.67;;;;;;;0.66;100.00;101531.81;5029531;28;20037;-70
2021/12/06 07:38:16;;;;;;;479.25;58.90;;;;;;;0.66;100.00;101539.69;5032007;28;20028;-71
2021/12/06 07:40:42;;;;;;;364.77;55.30;;;;;;;0.67;100.00;101545.75;5032831;28;20083;-72
2021/12/06 07:43:07;;;;;;;344.25;53.35;;;;;;;0.68;100.00;101540.47;5031974;28;20080;-72
2021/12/06 07:45:33;;;;;;;384.48;57.72;;;;;;;0.69;100.00;101539.56;5032794;28;20112;-72
2021/12/06 07:47:58;;;;;;;502.52;58.65;;;;;;;0.74;100.00;101541.16;5032249;28;20397;-75
2021/12/06 07:50:24;;;;;;;353.52;53.13;;;;;;;0.75;100.00;101541.09;5036074;28;20032;-72
2021/12/06 07:52:52;;;;;;;409.77;53.28;;;;;;;0.75;100.00;101538.47;5032552;28;20477;-73
2021/12/06 07:55:19;;;;;;;597.65;61.60;;;;;;;0.75;100.00;101535.88;5031395;28;20119;-73
2021/12/06 07:57:45;;;;;;;361.65;57.65;;;;;;;0.76;100.00;101534.97;5032647;28;20021;-72
2021/12/06 08:00:15;;;;;;;356.15;58.45;;;;;;;0.81;100.00;101538.25;5031987;28;20038;-73
2021/12/06 08:02:41;;;;;;;352.75;55.38;;;;;;;0.83;100.00;101541.66;5032571;28;20103;-72
2021/12/06 08:07:54;;;;;;;352.95;58.05;;;;;;;0.88;100.00;101557.19;5032437;28;20044;-71
2021/12/06 08:10:20;;;;;;;437.50;61.08;;;;;;;0.89;100.00;101558.91;5031586;28;20021;-72
2021/12/06 08:12:45;;;;;;;387.80;59.30;;;;;;;0.91;100.00;101569.31;5032410;28;20065;-72
2021/12/06 08:15:11;;;;;;;408.45;59.67;;;;;;;0.86;100.00;101569.50;5031490;28;20034;-72
2021/12/06 08:17:36;;;;;;;336.13;58.05;;;;;;;0.89;100.00;101577.25;5035720;28;20038;-72
2021/12/06 08:20:05;;;;;;;378.80;57.13;;;;;;;0.92;100.00;101578.91;5032976;28;20401;-77
2021/12/06 08:22:31;;;;;;;392.50;56.33;;;;;;;0.95;100.00;101576.16;5032129;28;20040;-72
2021/12/06 08:24:57;;;;;;;402.85;54.65;;;;;;;0.92;100.00;101571.88;5032119;28;20029;-70
2021/12/06 08:27:22;;;;;;;326.25;53.75;;;;;;;0.92;100.00;101571.88;5031410;28;20279;-71
2021/12/06 08:29:48;;;;;;;380.77;55.83;;;;;;;0.92;100.00;101571.88;5032047;28;20501;-72
2021/12/06 08:32:14;;;;;;;403.33;57.55;;;;;;;0.91;100.00;101567.59;5031419;28;20036;-72
2021/12/06 08:34:42;;;;;;;333.05;54.60;;;;;;;0.92;100.00;101571.03;5030751;28;20036;-73
2021/12/06 08:37:12;;;;;;;348.90;54.17;;;;;;;0.96;100.00;101567.41;5031378;28;20124;-73
2021/12/06 08:39:38;;;;;;;379.63;54.28;;;;;;;0.98;100.00;101568.19;5031917;28;20076;-71
2021/12/06 08:42:04;;;;;;;380.00;56.50;;;;;;;1.01;100.00;101565.44;5031693;28;20567;-73
2021/12/06 08:44:29;;;;;;;430.67;62.22;;;;;;;1.01;100.00;101561.03;5031436;28;20038;-73
2021/12/06 08:46:55;;;;;;;366.60;56.88;;;;;;;1.04;100.00;101555.69;5032352;28;20173;-72
2021/12/06 08:49:21;;;;;;;373.00;59.55;;;;;;;1.06;100.00;101555.66;5031505;28;20032;-74
2021/12/06 08:51:50;;;;;;;391.77;59.20;;;;;;;1.12;100.00;101546.66;5031884;28;20030;-72
2021/12/06 08:54:18;;;;;;;403.13;61.25;;;;;;;1.19;100.00;101538.50;5031354;28;20029;-72
2021/12/06 08:56:46;;;;;;;372.25;62.17;;;;;;;1.22;100.00;101535.78;5031983;28;20030;-73
2021/12/06 08:59:12;;;;;;;399.33;63.28;;;;;;;1.26;100.00;101535.66;5031283;28;20030;-72
2021/12/06 09:01:39;;;;;;;356.33;62.50;;;;;;;1.30;100.00;101538.09;5031673;28;20505;-72
2021/12/06 09:04:09;;;;;;;431.17;65.32;;;;;;;1.31;100.00;101537.16;5031714;28;20029;-72
2021/12/06 09:06:38;;;;;;;397.35;64.95;;;;;;;1.35;100.00;101538.72;5035299;28;20037;-72
2021/12/06 09:09:07;;;;;;;426.40;66.10;;;;;;;1.40;100.00;101535.91;5035711;28;20040;-72
2021/12/06 09:11:35;;;;;;;427.42;69.30;;;;;;;1.46;100.00;101529.56;5034653;28;20029;-72
2021/12/06 09:14:00;;;;;;;358.33;65.15;;;;;;;1.45;100.00;101533.97;5035024;28;20033;-73
2021/12/06 09:16:26;;;;;;;397.73;68.97;;;;;;;1.49;100.00;101526.81;5033472;28;20048;-73
2021/12/06 09:18:53;;;;;;;381.55;66.82;;;;;;;1.51;100.00;101522.38;5033802;28;20079;-72
2021/12/06 09:21:21;;;;;;;356.27;65.00;;;;;;;1.53;100.00;101542.38;5033249;28;20037;-73
2021/12/06 09:23:48;;;;;;;325.52;60.40;;;;;;;1.56;100.00;101549.25;5035042;28;20029;-74
2021/12/06 09:26:13;;;;;;;310.35;62.55;;;;;;;1.57;100.00;101564.09;5034165;28;20033;-73
2021/12/06 09:28:39;;;;;;;377.58;64.00;;;;;;;1.59;100.00;101562.25;5035456;28;20051;-74
2021/12/06 09:31:05;;;;;;;372.02;65.38;;;;;;;1.60;100.00;101558.72;5034104;28;20057;-73
2021/12/06 09:33:33;;;;;;;349.67;63.03;;;;;;;1.60;100.00;101558.72;5034771;28;20108;-74
2021/12/06 09:36:00;;;;;;;326.83;61.20;;;;;;;1.62;100.00;101556.88;5035096;28;20501;-72
2021/12/06 09:38:34;;;;;;;322.20;59.03;;;;;;;1.64;100.00;101554.19;5034501;28;20083;-73
2021/12/06 09:41:00;;;;;;;338.23;59.30;;;;;;;1.66;100.00;101547.13;5035063;28;20092;-74
2021/12/06 09:43:26;;;;;;;310.52;58.28;;;;;;;1.69;100.00;101539.97;5033677;28;20033;-74
2021/12/06 09:45:53;;;;;;;324.02;60.17;;;;;;;1.74;100.00;101542.41;5035056;28;20039;-73
2021/12/06 09:48:20;;;;;;;299.45;56.83;;;;;;;1.77;100.00;101552.75;5034351;28;20042;-74
2021/12/06 09:50:59;;;;;;;300.42;57.78;;;;;;;1.77;100.00;101547.50;5034897;28;20056;-72
2021/12/06 09:53:27;;;;;;;277.45;52.65;;;;;;;1.79;100.00;101548.28;5034251;28;20021;-71
2021/12/06 09:55:56;;;;;;;272.70;52.90;;;;;;;1.81;100.00;101548.22;5034842;28;20055;-71
2021/12/06 09:58:22;;;;;;;280.45;52.38;;;;;;;1.80;100.00;101557.88;5033176;28;20017;-72
2021/12/06 10:01:28;;;;;;;279.52;53.28;;;;;;;1.84;100.00;101554.22;5034954;28;20389;-71
2021/12/06 10:03:57;;;;;;;300.73;52.70;;;;;;;1.88;100.00;101544.41;5034253;28;20045;-74
2021/12/06 10:06:23;;;;;;;261.33;51.28;;;;;;;1.95;100.00;101543.25;5034330;28;20068;-74
2021/12/06 10:08:52;;;;;;;292.25;53.25;;;;;;;1.93;100.00;101527.56;5034995;28;20041;-76
2021/12/06 10:11:20;;;;;;;233.07;49.55;;;;;;;1.98;100.00;101523.91;5034220;28;20026;-77
2021/12/06 10:13:46;;;;;;;202.32;45.95;;;;;;;1.90;100.00;101522.44;5034541;28;20410;-72
2021/12/06 10:16:12;;;;;;;213.90;46.58;;;;;;;1.94;100.00;101523.16;5032849;28;20465;-73
2021/12/06 10:18:39;;;;;;;201.65;47.30;;;;;;;2.00;100.00;101503.66;5032358;28;20037;-73
2021/12/06 10:21:06;;;;;;;167.10;42.75;;;;;;;1.99;100.00;101492.31;5034661;28;20045;-73
2021/12/06 10:23:36;;;;;;;135.95;40.42;;;;;;;1.93;100.00;101490.81;5033825;28;20037;-73
2021/12/06 10:26:03;;;;;;;132.20;37.15;;;;;;;1.81;100.00;101483.50;5034516;28;20041;-73
2021/12/06 10:28:30;;;;;;;155.68;41.47;;;;;;;1.77;100.00;101480.13;5033852;28;20029;-75
2021/12/06 10:31:01;;;;;;;154.48;39.80;;;;;;;1.81;100.00;101477.38;5034011;28;20034;-74
2021/12/06 10:33:31;;;;;;;138.32;39.78;;;;;;;1.85;100.00;101471.94;5033913;28;20032;-75
2021/12/06 10:36:07;;;;;;;122.13;36.22;;;;;;;1.86;100.00;101455.25;5034627;28;20057;-75
2021/12/06 10:38:36;;;;;;;126.07;38.25;;;;;;;1.90;100.00;101448.97;5033589;28;20107;-74
2021/12/06 10:41:09;;;;;;;110.28;36.72;;;;;;;1.93;100.00;101446.19;5033850;28;20033;-75
2021/12/06 10:43:36;;;;;;;104.03;36.45;;;;;;;1.89;100.00;101449.03;5033333;28;20032;-76
2021/12/06 10:46:04;;;;;;;117.50;37.60;;;;;;;1.76;100.00;101449.59;5034090;28;20034;-74
2021/12/06 10:48:36;;;;;;;114.35;37.47;;;;;;;1.79;100.00;101438.06;5032335;28;20152;-74
2021/12/06 10:51:10;;;;;;;128.25;40.10;;;;;;;1.87;100.00;101430.72;5034200;28;20037;-75
2021/12/06 10:53:46;;;;;;;128.30;39.60;;;;;;;1.92;100.00;101425.28;5033659;28;20037;-74
2021/12/06 10:56:25;;;;;;;116.75;39.40;;;;;;;1.95;100.00;101430.38;5033849;28;20034;-73
2021/12/06 10:58:53;;;;;;;112.90;39.45;;;;;;;1.98;100.00;101427.63;5033064;28;20494;-74
2021/12/06 11:01:27;;;;;;;112.68;39.13;;;;;;;2.04;100.00;101422.09;5034126;28;20025;-74
2021/12/06 11:03:55;;;;;;;108.00;38.10;;;;;;;2.17;100.00;101411.88;5034000;28;20041;-74
2021/12/06 11:06:30;;;;;;;105.57;38.50;;;;;;;2.23;100.00;101401.09;5033717;28;20022;-74
2021/12/06 11:09:03;;;;;;;102.90;37.15;;;;;;;2.31;100.00;101405.97;5034269;28;20258;-73
2021/12/06 11:11:34;;;;;;;89.85;36.45;;;;;;;2.33;100.00;101401.53;5033441;28;20037;-73
2021/12/06 11:14:22;;;;;;;94.63;36.47;;;;;;;2.40;100.00;101395.03;5033898;28;20118;-73
2021/12/06 11:16:54;;;;;;;91.95;36.03;;;;;;;2.52;100.00;101387.50;5033267;28;20052;-73